Time;durP1;ratioP1;P1;durP2;ratioP2;P2;SDS_P1;SDS_P2;PMS_P1;PMS_P2;Temp;Humidity;BMP_temperature;BMP_pressure;BME280_temperature;BME280_humidity;BME280_pressure;Samples;Min_cycle;Max_cycle;Signal;HPM_P1;HPM_P2
2023/09/23 00:00:40;;;;;;;3.78;2.30;;;;;;;24.14;45.30;100567.81;5071491;28;20035;-66
2023/09/23 00:03:05;;;;;;;2.42;1.65;;;;;;;24.17;45.19;100569.22;5075590;28;20051;-67
2023/09/23 00:05:35;;;;;;;2.30;2.00;;;;;;;24.14;45.20;100567.81;5075231;28;20047;-68
2023/09/23 00:08:00;;;;;;;2.65;2.03;;;;;;;24.20;45.13;100568.78;5070977;28;20749;-66
2023/09/23 00:10:27;;;;;;;3.15;2.15;;;;;;;24.15;45.29;100572.09;5074216;28;20039;-66
2023/09/23 00:12:55;;;;;;;2.50;1.92;;;;;;;24.12;45.18;100567.22;5075717;28;20096;-67
2023/09/23 00:15:21;;;;;;;2.47;1.73;;;;;;;24.10;45.28;100561.28;5074193;28;20055;-67
2023/09/23 00:17:46;;;;;;;3.70;1.80;;;;;;;24.15;45.06;100572.09;5072752;28;20143;-67
2023/09/23 00:20:14;;;;;;;2.80;1.80;;;;;;;24.15;45.20;100572.09;5076796;28;20044;-68
2023/09/23 00:22:47;;;;;;;2.25;1.67;;;;;;;24.14;45.28;100577.63;5075933;28;20089;-67
2023/09/23 00:25:18;;;;;;;1.75;1.60;;;;;;;24.16;45.21;100579.06;5074659;28;20201;-67
2023/09/23 00:27:45;;;;;;;1.92;1.83;;;;;;;24.09;45.16;100578.28;5077701;28;20039;-67
2023/09/23 00:30:15;;;;;;;3.25;1.80;;;;;;;24.15;45.22;100584.59;5075375;28;20120;-66
2023/09/23 00:32:44;;;;;;;1.52;1.42;;;;;;;24.14;45.10;100586.44;5078748;28;20039;-67
2023/09/23 00:35:12;;;;;;;2.67;1.90;;;;;;;24.16;45.20;100586.22;5075867;28;20048;-67
2023/09/23 00:37:40;;;;;;;2.80;1.63;;;;;;;24.12;45.07;100593.81;5079375;28;20561;-67
2023/09/23 00:40:06;;;;;;;2.47;1.77;;;;;;;24.13;45.43;100600.75;5079327;28;20055;-67
2023/09/23 00:42:32;;;;;;;2.78;1.75;;;;;;;24.10;45.31;100607.34;5074957;28;20036;-67
2023/09/23 00:44:57;;;;;;;2.65;1.70;;;;;;;24.11;45.18;100602.81;5077889;28;20036;-66
2023/09/23 00:47:23;;;;;;;2.15;1.50;;;;;;;24.10;45.18;100607.34;5076745;28;20494;-67
2023/09/23 00:49:48;;;;;;;3.88;1.85;;;;;;;24.13;45.26;100611.41;5074251;28;20670;-67
2023/09/23 00:52:16;;;;;;;4.25;2.25;;;;;;;24.14;45.04;100617.53;5079440;28;20119;-67
2023/09/23 00:54:42;;;;;;;3.47;1.45;;;;;;;24.12;45.08;100617.75;5073316;28;20024;-67
2023/09/23 00:57:10;;;;;;;2.65;1.80;;;;;;;24.12;45.18;100615.09;5076856;28;20036;-67
2023/09/23 00:59:36;;;;;;;1.88;1.40;;;;;;;24.12;45.20;100623.06;5077857;28;20078;-66
2023/09/23 01:02:05;;;;;;;4.10;1.42;;;;;;;24.11;45.10;100629.44;5078844;28;20525;-67
2023/09/23 01:04:32;;;;;;;2.10;1.60;;;;;;;24.07;45.21;100626.38;5076046;28;20081;-67
2023/09/23 01:07:00;;;;;;;1.58;1.48;;;;;;;24.09;45.12;100629.66;5077152;28;20584;-66
2023/09/23 01:09:27;;;;;;;1.80;1.58;;;;;;;24.11;45.15;100624.94;5076684;28;20044;-67
2023/09/23 01:11:55;;;;;;;2.08;1.42;;;;;;;24.08;45.24;100641.31;5077787;28;20031;-67
2023/09/23 01:14:25;;;;;;;2.70;1.48;;;;;;;24.08;45.44;100629.84;5075876;28;20036;-67
2023/09/23 01:16:51;;;;;;;;;;;;;;;24.07;45.08;100633.53;5075599;28;20119;-67
2023/09/23 01:19:20;;;;;;;1.98;1.50;;;;;;;24.04;45.22;100636.59;5077251;28;19967;-66
2023/09/23 01:21:49;;;;;;;1.38;1.25;;;;;;;24.07;45.18;100636.22;5079774;28;20072;-66
2023/09/23 01:24:18;;;;;;;2.20;1.58;;;;;;;24.09;45.04;100634.97;5081332;28;20147;-67
2023/09/23 01:26:52;;;;;;;2.33;1.63;;;;;;;24.09;44.97;100639.47;5074923;28;20042;-67
2023/09/23 01:29:22;;;;;;;1.58;1.48;;;;;;;24.07;45.14;100645.00;5088230;28;20073;-66
2023/09/23 01:32:03;;;;;;;2.13;1.40;;;;;;;24.06;45.17;100650.53;5072475;28;20043;-67
2023/09/23 01:34:29;;;;;;;1.80;1.52;;;;;;;24.08;45.08;100645.81;5077599;28;20036;-67
2023/09/23 01:36:55;;;;;;;2.35;1.40;;;;;;;24.07;45.08;100647.66;5073248;28;20044;-67
2023/09/23 01:39:21;;;;;;;3.33;1.70;;;;;;;24.06;44.98;100654.00;5078715;28;20024;-67
2023/09/23 01:41:46;;;;;;;1.40;1.30;;;;;;;24.07;45.08;100652.97;5074885;28;20031;-68
2023/09/23 01:44:12;;;;;;;4.07;1.65;;;;;;;24.05;45.14;100657.66;5076323;28;20087;-67
2023/09/23 01:46:37;;;;;;;1.50;1.40;;;;;;;24.05;45.13;100663.00;5078296;28;20045;-66
2023/09/23 01:49:03;;;;;;;1.65;1.50;;;;;;;24.04;45.21;100660.53;5078029;28;20058;-67
2023/09/23 01:51:28;;;;;;;1.55;1.30;;;;;;;24.08;45.00;100659.94;5075782;28;20446;-67
2023/09/23 01:53:55;;;;;;;1.05;1.05;;;;;;;24.04;45.02;100669.34;5073374;28;20089;-67
2023/09/23 01:56:20;;;;;;;1.50;1.25;;;;;;;24.04;45.13;100671.19;5073598;28;20119;-68
2023/09/23 01:58:48;;;;;;;2.72;1.70;;;;;;;24.02;45.16;100671.41;5072346;28;20040;-67
2023/09/23 02:01:14;;;;;;;1.50;1.40;;;;;;;23.99;45.26;100676.34;5076665;28;20044;-67
2023/09/23 02:03:40;;;;;;;1.58;1.38;;;;;;;24.02;45.15;100667.94;5079880;28;20129;-67
2023/09/23 02:06:05;;;;;;;1.30;1.20;;;;;;;24.03;45.15;100672.22;5073106;28;20047;-67
2023/09/23 02:08:31;;;;;;;1.17;1.05;;;;;;;24.01;45.21;100669.78;5074236;28;20039;-66
2023/09/23 02:10:56;;;;;;;1.08;1.08;;;;;;;24.03;45.16;100678.34;5061185;28;20550;-67
2023/09/23 02:13:22;;;;;;;1.90;1.40;;;;;;;24.03;45.05;100675.69;5076515;28;20399;-67
2023/09/23 02:15:47;;;;;;;1.70;1.42;;;;;;;24.04;45.08;100681.81;5079475;28;20032;-67
2023/09/23 02:18:14;;;;;;;1.05;1.00;;;;;;;24.03;45.02;100681.00;5075575;28;20036;-67
2023/09/23 02:20:40;;;;;;;1.38;1.10;;;;;;;23.95;45.11;100675.94;5087794;28;20497;-66
2023/09/23 02:23:05;;;;;;;0.98;0.98;;;;;;;24.02;45.14;100690.03;5073934;28;20052;-67
2023/09/23 02:25:31;;;;;;;1.63;1.40;;;;;;;24.04;45.10;100692.47;5077387;28;20052;-66
2023/09/23 02:27:57;;;;;;;1.75;1.15;;;;;;;24.05;44.92;100696.75;5075363;28;20405;-67
2023/09/23 02:30:23;;;;;;;1.65;1.20;;;;;;;24.03;45.08;100698.81;5084443;28;20679;-67
2023/09/23 02:32:48;;;;;;;1.10;0.98;;;;;;;24.03;44.93;100696.97;5072012;28;20036;-67
2023/09/23 02:35:16;;;;;;;2.00;1.60;;;;;;;24.02;45.15;100697.19;5070849;28;20035;-67
2023/09/23 02:37:44;;;;;;;1.75;1.30;;;;;;;24.01;45.03;100709.66;5073209;28;20060;-67
2023/09/23 02:40:14;;;;;;;1.77;1.35;;;;;;;24.01;45.03;100706.19;5075417;28;20040;-66
2023/09/23 02:42:44;;;;;;;1.05;0.98;;;;;;;24.00;45.08;100704.56;5070290;28;20048;-67
2023/09/23 02:45:13;;;;;;;1.88;1.38;;;;;;;23.99;45.13;100705.59;5073277;28;20565;-67
2023/09/23 02:47:41;;;;;;;1.75;1.23;;;;;;;24.01;45.00;100706.19;5075206;28;20672;-67
2023/09/23 02:50:13;;;;;;;1.23;1.13;;;;;;;23.98;44.97;100714.59;5072805;28;20046;-67
2023/09/23 02:52:39;;;;;;;1.15;1.15;;;;;;;23.97;45.25;100721.75;5075940;28;20048;-66
2023/09/23 02:55:14;;;;;;;2.25;1.30;;;;;;;24.00;44.94;100721.34;5072913;28;20036;-67
2023/09/23 02:57:41;;;;;;;1.20;1.10;;;;;;;24.01;45.02;100720.31;5075469;28;20502;-67
2023/09/23 03:00:18;;;;;;;2.28;1.50;;;;;;;23.96;45.06;100714.81;5076439;28;21999;-67
2023/09/23 03:02:50;;;;;;;1.50;1.20;;;;;;;23.96;45.05;100719.31;5072614;28;20047;-67
2023/09/23 03:05:16;;;;;;;1.58;1.10;;;;;;;23.97;45.18;100723.59;5075612;28;20282;-67
2023/09/23 03:07:43;;;;;;;1.60;1.35;;;;;;;23.98;45.21;100725.22;5074437;28;20043;-67
2023/09/23 03:10:13;;;;;;;1.05;0.98;;;;;;;23.97;45.08;100723.59;5072750;28;20046;-67
2023/09/23 03:12:50;;;;;;;1.58;1.20;;;;;;;23.95;45.15;100729.13;5073269;28;20754;-67
2023/09/23 03:15:20;;;;;;;1.55;1.02;;;;;;;23.96;44.93;100724.63;5070229;28;20067;-67
2023/09/23 03:17:50;;;;;;;1.30;1.20;;;;;;;23.94;44.98;100718.72;5076680;28;20500;-67
2023/09/23 03:20:25;;;;;;;2.72;1.50;;;;;;;23.95;45.01;100723.81;5076284;28;20119;-67
2023/09/23 03:22:52;;;;;;;2.05;1.20;;;;;;;23.98;45.17;100726.06;5074511;28;20035;-67
2023/09/23 03:25:19;;;;;;;1.27;1.17;;;;;;;23.93;44.96;100725.88;5073009;28;21006;-68
2023/09/23 03:27:46;;;;;;;1.80;1.27;;;;;;;23.98;44.99;100726.06;5073022;28;20495;-67
2023/09/23 03:30:12;;;;;;;1.70;1.10;;;;;;;23.93;44.95;100720.56;5073390;28;20043;-67
2023/09/23 03:32:39;;;;;;;1.58;1.10;;;;;;;23.95;45.21;100733.63;5073930;28;20040;-69
2023/09/23 03:35:07;;;;;;;2.00;1.08;;;;;;;23.94;45.02;100737.31;5075371;28;20035;-67
2023/09/23 03:37:35;;;;;;;1.13;1.03;;;;;;;23.92;45.04;100740.19;5090677;28;20029;-67
2023/09/23 03:40:07;;;;;;;1.85;1.27;;;;;;;23.91;44.94;100741.22;5076009;28;20085;-67
2023/09/23 03:42:34;;;;;;;1.42;1.08;;;;;;;23.97;45.15;100737.72;5072327;28;20497;-66
2023/09/23 03:44:59;;;;;;;1.85;1.20;;;;;;;23.92;45.10;100732.22;5085239;28;20040;-67
2023/09/23 03:47:25;;;;;;;1.27;1.17;;;;;;;23.91;44.92;100732.44;5074011;28;20072;-67
2023/09/23 03:49:51;;;;;;;1.75;1.08;;;;;;;23.93;45.17;100735.69;5070154;28;20131;-67
2023/09/23 03:52:17;;;;;;;1.92;1.10;;;;;;;23.95;44.96;100733.63;5076110;28;20046;-67
2023/09/23 03:54:43;;;;;;;1.70;1.27;;;;;;;23.96;45.06;100740.59;5069742;28;20032;-67
2023/09/23 03:57:08;;;;;;;1.02;0.90;;;;;;;23.95;44.89;100738.97;5079493;28;20340;-67
2023/09/23 03:59:36;;;;;;;1.00;1.00;;;;;;;23.91;44.94;100745.72;5079206;28;20036;-67
2023/09/23 04:02:01;;;;;;;2.15;1.27;;;;;;;23.94;45.14;100747.97;5076740;28;20035;-68
2023/09/23 04:04:27;;;;;;;1.35;1.08;;;;;;;23.92;45.02;100761.47;5076291;28;20596;-66
2023/09/23 04:06:52;;;;;;;1.48;1.30;;;;;;;23.92;45.04;100761.47;5076722;28;20504;-67
2023/09/23 04:09:18;;;;;;;1.42;1.08;;;;;;;23.89;45.00;100775.19;5079346;28;20740;-67
2023/09/23 04:11:45;;;;;;;2.00;1.17;;;;;;;23.92;45.10;100781.94;5079459;28;20058;-67
2023/09/23 04:14:11;;;;;;;2.63;1.20;;;;;;;23.89;45.10;100785.00;5077836;28;20039;-67
2023/09/23 04:16:37;;;;;;;2.25;1.60;;;;;;;23.91;45.09;100778.47;5079176;28;20031;-67
2023/09/23 04:19:03;;;;;;;1.60;1.20;;;;;;;23.90;45.13;100790.13;5082644;28;20043;-67
2023/09/23 04:21:30;;;;;;;2.13;1.02;;;;;;;23.91;44.81;100791.75;5075629;28;20044;-67
2023/09/23 04:23:57;;;;;;;2.03;1.35;;;;;;;23.87;45.02;100793.16;5073880;28;20426;-67
2023/09/23 04:26:24;;;;;;;1.48;1.38;;;;;;;23.85;45.14;100797.88;5077906;28;20044;-67
2023/09/23 04:28:52;;;;;;;1.40;1.13;;;;;;;23.89;45.10;100799.13;5080378;28;20569;-67
2023/09/23 04:31:18;;;;;;;1.33;1.05;;;;;;;23.88;44.96;100796.66;5073937;28;20274;-67
2023/09/23 04:33:44;;;;;;;2.47;1.40;;;;;;;23.85;45.20;100807.69;5077468;28;20068;-68
2023/09/23 04:36:11;;;;;;;1.85;1.20;;;;;;;23.84;45.18;100808.72;5080571;28;20501;-66
2023/09/23 04:38:36;;;;;;;1.25;1.10;;;;;;;23.83;45.01;100807.91;5082037;28;20068;-66
2023/09/23 04:41:02;;;;;;;1.55;1.10;;;;;;;23.81;45.08;100813.44;5077273;28;20062;-67
2023/09/23 04:43:30;;;;;;;2.13;1.25;;;;;;;23.85;44.97;100815.69;5078643;28;20073;-67
2023/09/23 04:45:56;;;;;;;1.42;1.23;;;;;;;23.84;44.99;100820.19;5079025;28;20436;-67
2023/09/23 04:48:24;;;;;;;1.10;1.00;;;;;;;23.85;44.85;100815.69;5077814;28;20048;-67
2023/09/23 04:50:52;;;;;;;1.88;1.50;;;;;;;23.83;44.90;100821.19;5074493;28;20424;-67
2023/09/23 04:53:18;;;;;;;2.40;1.40;;;;;;;23.81;44.92;100817.94;5071810;28;20036;-66
2023/09/23 04:55:45;;;;;;;1.50;1.40;;;;;;;23.82;45.16;100822.22;5077523;28;20040;-67
2023/09/23 04:58:12;;;;;;;1.90;1.05;;;;;;;23.78;45.21;100824.50;5071783;28;20494;-66
2023/09/23 05:00:38;;;;;;;1.33;1.10;;;;;;;23.80;45.03;100834.91;5077159;28;20576;-68
2023/09/23 05:03:05;;;;;;;1.38;0.95;;;;;;;23.82;45.03;100824.88;5073800;28;20049;-66
2023/09/23 05:05:32;;;;;;;1.38;1.27;;;;;;;23.80;45.21;100830.41;5079600;28;20528;-67
2023/09/23 05:07:59;;;;;;;1.63;1.10;;;;;;;23.81;44.98;100837.38;5073719;28;20036;-66
2023/09/23 05:10:26;;;;;;;1.70;1.33;;;;;;;23.80;44.91;100835.72;5076348;28;20036;-67
2023/09/23 05:12:56;;;;;;;1.33;1.10;;;;;;;23.78;45.03;100831.66;5078201;28;20032;-67
2023/09/23 05:15:24;;;;;;;1.60;1.15;;;;;;;23.78;44.94;100840.44;5078520;28;20040;-67
2023/09/23 05:17:50;;;;;;;2.33;1.30;;;;;;;23.78;44.95;100844.94;5077189;28;20521;-66
2023/09/23 05:20:25;;;;;;;2.75;1.45;;;;;;;23.78;44.99;100845.75;5078712;28;20131;-67
2023/09/23 05:22:52;;;;;;;1.25;1.13;;;;;;;23.76;44.95;100850.47;5075300;28;20075;-66
2023/09/23 05:25:17;;;;;;;1.75;1.27;;;;;;;23.79;44.96;100855.38;5076516;28;20051;-67
2023/09/23 05:27:43;;;;;;;1.83;1.23;;;;;;;23.76;45.18;100858.44;5077463;28;20029;-67
2023/09/23 05:30:10;;;;;;;1.75;1.35;;;;;;;23.77;45.02;100852.09;5072181;28;20541;-67
2023/09/23 05:32:39;;;;;;;1.63;1.52;;;;;;;23.76;45.23;100857.63;5083118;28;20647;-68
2023/09/23 05:35:09;;;;;;;1.52;1.20;;;;;;;23.76;44.94;100863.75;5073912;28;20025;-68
2023/09/23 05:37:35;;;;;;;2.15;1.08;;;;;;;23.75;45.01;100864.78;5075326;28;20047;-65
2023/09/23 05:40:01;;;;;;;2.60;1.38;;;;;;;23.78;44.96;100875.00;5070798;28;20036;-66
2023/09/23 05:42:27;;;;;;;1.80;1.13;;;;;;;23.77;44.93;100873.38;5077557;28;20089;-66
2023/09/23 05:44:52;;;;;;;3.25;1.50;;;;;;;23.77;44.95;100876.03;5078347;28;20052;-66
2023/09/23 05:47:18;;;;;;;2.17;1.40;;;;;;;23.74;45.06;100880.94;5076292;28;21056;-66
2023/09/23 05:49:43;;;;;;;1.77;1.50;;;;;;;23.74;45.03;100889.75;5077334;28;20051;-66
2023/09/23 05:52:10;;;;;;;1.85;1.50;;;;;;;23.76;44.96;100886.88;5072388;28;20040;-66
2023/09/23 05:54:36;;;;;;;1.02;0.90;;;;;;;23.73;44.92;100887.28;5076719;28;20116;-66
2023/09/23 05:57:02;;;;;;;3.25;1.50;;;;;;;23.73;45.07;100890.78;5075099;28;20032;-66
2023/09/23 05:59:27;;;;;;;2.05;1.33;;;;;;;23.75;44.91;100899.34;5074597;28;20031;-65
2023/09/23 06:01:53;;;;;;;1.88;1.40;;;;;;;23.74;44.87;100904.88;5073167;28;20477;-66
2023/09/23 06:04:18;;;;;;;1.85;1.40;;;;;;;23.61;45.28;100891.56;5077067;28;20040;-66
2023/09/23 06:06:44;;;;;;;1.38;1.17;;;;;;;23.75;44.85;100911.84;5070912;28;20040;-66
2023/09/23 06:09:09;;;;;;;1.38;1.13;;;;;;;23.73;44.99;100909.38;5073726;28;20084;-66
2023/09/23 06:11:35;;;;;;;1.92;1.63;;;;;;;23.74;44.92;100912.84;5075965;28;20209;-65
2023/09/23 06:14:01;;;;;;;3.13;1.55;;;;;;;23.74;45.03;100912.84;5079487;28;20044;-66
2023/09/23 06:16:26;;;;;;;1.45;1.33;;;;;;;23.68;44.98;100922.44;5073247;28;20118;-66
2023/09/23 06:18:52;;;;;;;2.65;1.10;;;;;;;23.69;45.13;100913.44;5078335;28;20048;-66
2023/09/23 06:21:18;;;;;;;2.33;1.35;;;;;;;23.74;44.87;100921.66;5075258;28;20082;-66
2023/09/23 06:23:44;;;;;;;1.48;1.27;;;;;;;23.70;44.94;100935.56;5072139;28;20093;-66
2023/09/23 06:26:10;;;;;;;2.65;1.42;;;;;;;23.69;44.84;100940.03;5076207;28;20071;-66
2023/09/23 06:28:36;;;;;;;1.63;1.27;;;;;;;23.69;44.99;100941.88;5071946;28;20154;-65
2023/09/23 06:31:03;;;;;;;1.50;1.40;;;;;;;23.71;44.96;100935.34;5073333;28;20023;-65
2023/09/23 06:33:29;;;;;;;2.08;1.77;;;;;;;23.67;44.95;100942.06;5074163;28;20060;-65
2023/09/23 06:35:55;;;;;;;2.08;1.33;;;;;;;23.72;44.75;100952.13;5070160;28;20035;-66
2023/09/23 06:38:20;;;;;;;2.67;1.50;;;;;;;23.73;44.77;100948.44;5077089;28;20040;-66
2023/09/23 06:40:46;;;;;;;1.73;1.55;;;;;;;23.70;44.76;100952.31;5074165;28;20036;-66
2023/09/23 06:43:12;;;;;;;3.25;2.10;;;;;;;23.72;44.91;100958.25;5075777;28;20401;-66
2023/09/23 06:45:37;;;;;;;4.47;1.60;;;;;;;23.71;44.79;100958.47;5075541;28;20604;-66
2023/09/23 06:48:03;;;;;;;3.70;1.60;;;;;;;23.75;44.85;100967.66;5076900;28;20032;-66
2023/09/23 06:50:29;;;;;;;1.98;1.35;;;;;;;23.72;44.89;100970.75;5075762;28;20375;-67
2023/09/23 06:52:55;;;;;;;2.38;1.60;;;;;;;23.76;44.73;100974.63;5072139;28;20042;-69
2023/09/23 06:55:20;;;;;;;2.95;1.95;;;;;;;23.73;44.78;100973.19;5073347;28;20040;-66
2023/09/23 06:57:46;;;;;;;2.67;1.90;;;;;;;23.71;44.84;100987.72;5074290;28;20039;-66
2023/09/23 07:00:12;;;;;;;2.55;1.70;;;;;;;23.74;44.96;100984.66;5077272;28;20463;-66
2023/09/23 07:02:37;;;;;;;2.50;1.65;;;;;;;23.75;44.70;100988.94;5075843;28;20024;-66
2023/09/23 07:05:03;;;;;;;3.10;1.92;;;;;;;23.74;44.89;100996.09;5074752;28;20041;-66
2023/09/23 07:07:28;;;;;;;2.13;1.60;;;;;;;23.76;44.77;100995.91;5074531;28;20588;-66
2023/09/23 07:09:54;;;;;;;3.25;2.00;;;;;;;23.78;44.89;101001.81;5071623;28;20196;-66
2023/09/23 07:12:20;;;;;;;2.85;1.77;;;;;;;23.78;44.93;101007.16;5077733;28;20142;-66
2023/09/23 07:14:46;;;;;;;3.38;1.90;;;;;;;23.80;44.72;101008.56;5072147;28;20059;-66
2023/09/23 07:17:11;;;;;;;2.50;1.75;;;;;;;23.76;44.82;101009.19;5073516;28;20040;-67
2023/09/23 07:19:37;;;;;;;2.88;1.83;;;;;;;23.79;44.72;101006.94;5071395;28;20032;-66
2023/09/23 07:22:02;;;;;;;2.45;1.90;;;;;;;23.82;44.67;101019.00;5072092;28;20040;-66
2023/09/23 07:24:29;;;;;;;2.42;1.88;;;;;;;23.81;44.80;101026.16;5077027;28;20391;-66
2023/09/23 07:26:58;;;;;;;2.92;2.13;;;;;;;23.84;44.63;101032.09;5076266;28;20478;-65
2023/09/23 07:29:25;;;;;;;3.03;2.08;;;;;;;23.80;44.60;101029.84;5072739;28;20063;-67
2023/09/23 07:31:52;;;;;;;2.22;2.08;;;;;;;23.79;44.88;101043.34;5071368;28;20062;-67
2023/09/23 07:34:18;;;;;;;2.53;1.98;;;;;;;23.82;44.81;101042.94;5075744;28;20040;-66
2023/09/23 07:36:43;;;;;;;3.42;2.00;;;;;;;23.78;44.79;101041.72;5072529;28;20046;-67
2023/09/23 07:39:12;;;;;;;3.35;2.00;;;;;;;23.81;44.75;101039.47;5073485;28;20044;-65
2023/09/23 07:41:38;;;;;;;2.00;1.80;;;;;;;23.84;44.69;101038.25;5072009;28;20039;-66
2023/09/23 07:44:05;;;;;;;3.47;2.10;;;;;;;23.82;44.62;101048.25;5070574;28;20040;-67
2023/09/23 07:46:30;;;;;;;2.60;2.08;;;;;;;23.80;44.71;101051.13;5074903;28;20126;-65
2023/09/23 07:48:56;;;;;;;2.97;2.13;;;;;;;23.84;44.83;101058.69;5073252;28;20040;-66
2023/09/23 07:51:22;;;;;;;3.03;1.98;;;;;;;23.82;44.87;101056.25;5075311;28;20032;-66
2023/09/23 07:53:47;;;;;;;2.53;2.03;;;;;;;23.86;44.63;101049.50;5066603;28;20483;-66
2023/09/23 07:56:13;;;;;;;4.07;2.15;;;;;;;23.84;44.84;101061.34;5073872;28;20039;-66
2023/09/23 07:58:38;;;;;;;2.33;1.80;;;;;;;23.84;44.69;101061.34;5069900;28;20095;-67
2023/09/23 08:01:04;;;;;;;3.80;2.20;;;;;;;23.86;44.73;101060.13;5074769;28;20233;-67
2023/09/23 08:03:30;;;;;;;4.03;3.00;;;;;;;23.88;44.83;101059.94;5070659;28;20047;-67
2023/09/23 08:05:56;;;;;;;2.65;2.30;;;;;;;23.87;44.75;101069.75;5073141;28;20055;-67
2023/09/23 08:08:21;;;;;;;4.55;2.53;;;;;;;23.88;44.75;101070.56;5071024;28;20059;-67
2023/09/23 08:10:49;;;;;;;3.10;2.30;;;;;;;23.86;44.69;101078.75;5071097;28;20040;-68
2023/09/23 08:13:16;;;;;;;5.45;2.90;;;;;;;23.85;44.59;101074.44;5070792;28;20051;-67
2023/09/23 08:15:42;;;;;;;5.45;2.50;;;;;;;23.90;44.63;101081.84;5070906;28;20048;-67
2023/09/23 08:18:07;;;;;;;3.92;2.75;;;;;;;23.88;44.65;101082.06;5069344;28;20036;-68
2023/09/23 08:20:33;;;;;;;2.80;2.60;;;;;;;23.86;44.80;101080.59;5072014;28;20047;-68
2023/09/23 08:22:58;;;;;;;3.05;2.70;;;;;;;23.88;44.80;101086.53;5069542;28;20039;-67
2023/09/23 08:25:24;;;;;;;3.60;2.70;;;;;;;23.94;44.51;101086.56;5067972;28;20048;-67
2023/09/23 08:27:50;;;;;;;5.13;2.70;;;;;;;23.95;44.50;101088.19;5073667;28;20604;-67
2023/09/23 08:30:17;;;;;;;4.15;2.95;;;;;;;23.92;44.67;101085.94;5071961;28;20048;-67
2023/09/23 08:32:42;;;;;;;5.28;2.80;;;;;;;23.92;44.50;101091.25;5069346;28;20039;-67
2023/09/23 08:35:08;;;;;;;2.90;2.50;;;;;;;24.02;44.31;101098.84;5069006;28;20513;-67
2023/09/23 08:37:34;;;;;;;5.07;3.08;;;;;;;24.01;44.42;101099.88;5071600;28;20036;-67
2023/09/23 08:40:00;;;;;;;3.75;2.70;;;;;;;24.03;44.40;101095.97;5070392;28;20032;-67
2023/09/23 08:42:27;;;;;;;4.20;2.80;;;;;;;24.02;44.21;101097.00;5069650;28;20094;-66
2023/09/23 08:44:53;;;;;;;4.47;2.88;;;;;;;24.00;44.42;101111.53;5075802;28;20389;-66
2023/09/23 08:47:20;;;;;;;4.00;2.65;;;;;;;23.99;44.51;101112.56;5070540;28;20036;-67
2023/09/23 08:49:50;;;;;;;4.50;2.97;;;;;;;23.96;44.66;101116.44;5068923;28;20040;-67
2023/09/23 08:52:17;;;;;;;3.92;2.72;;;;;;;23.96;44.56;101124.41;5070077;28;20160;-67
2023/09/23 08:54:48;;;;;;;3.40;2.78;;;;;;;24.00;44.28;101124.81;5073009;28;20032;-67
2023/09/23 08:57:17;;;;;;;4.45;2.78;;;;;;;24.00;44.50;101125.66;5070239;28;20094;-68
2023/09/23 08:59:43;;;;;;;3.42;2.70;;;;;;;23.98;44.55;101130.34;5076430;28;20032;-67
2023/09/23 09:02:10;;;;;;;4.07;2.70;;;;;;;24.01;44.39;101131.78;5072990;28;20467;-67
2023/09/23 09:04:36;;;;;;;4.18;2.90;;;;;;;24.00;44.42;101127.50;5075196;28;20040;-67
2023/09/23 09:07:02;;;;;;;3.50;2.70;;;;;;;24.02;44.29;101131.59;5075834;28;20430;-67
2023/09/23 09:09:27;;;;;;;3.03;2.50;;;;;;;23.98;44.43;101130.34;5067107;28;20055;-67
2023/09/23 09:11:54;;;;;;;4.07;2.63;;;;;;;23.98;44.38;101134.84;5079919;28;20081;-67
2023/09/23 09:14:22;;;;;;;5.40;2.85;;;;;;;23.98;44.38;101134.84;5072483;28;20029;-67
2023/09/23 09:16:48;;;;;;;4.50;2.97;;;;;;;23.99;44.22;101149.78;5086664;28;20118;-67
2023/09/23 09:19:14;;;;;;;4.88;2.95;;;;;;;23.99;44.64;101147.13;5073523;28;20043;-66
2023/09/23 09:21:41;;;;;;;3.80;2.55;;;;;;;24.02;44.42;101141.41;5074718;28;20062;-67
2023/09/23 09:24:07;;;;;;;4.13;2.70;;;;;;;24.00;44.37;101140.78;5069671;28;20059;-67
2023/09/23 09:26:35;;;;;;;3.30;2.55;;;;;;;24.06;44.34;101140.84;5079043;28;20064;-65
2023/09/23 09:29:02;;;;;;;3.45;2.60;;;;;;;24.06;44.33;101150.66;5076687;28;20063;-66
2023/09/23 09:31:33;;;;;;;3.85;2.63;;;;;;;24.03;44.49;101149.19;5077040;28;20075;-66
2023/09/23 09:34:05;;;;;;;3.88;2.70;;;;;;;24.07;44.45;101154.94;5070525;28;20061;-66
2023/09/23 09:36:36;;;;;;;5.03;2.38;;;;;;;24.09;44.24;101156.38;5073238;28;20050;-67
2023/09/23 09:39:08;;;;;;;4.40;2.55;;;;;;;24.09;44.42;101155.56;5074673;28;20052;-65
2023/09/23 09:41:51;;;;;;;5.40;2.60;;;;;;;24.09;44.30;101163.56;5078672;28;20533;-66
2023/09/23 09:44:21;;;;;;;3.17;2.50;;;;;;;24.13;44.30;101167.44;5071023;28;20158;-67
2023/09/23 09:46:48;;;;;;;3.95;2.50;;;;;;;24.10;44.37;101162.53;5073685;28;20040;-66
2023/09/23 09:49:16;;;;;;;4.50;2.60;;;;;;;24.09;44.36;101169.69;5073719;28;20050;-66
2023/09/23 09:51:42;;;;;;;3.70;2.70;;;;;;;24.11;44.24;101167.66;5076710;28;20155;-65
2023/09/23 09:54:11;;;;;;;3.35;2.42;;;;;;;24.11;44.31;101172.97;5071152;28;20028;-66
2023/09/23 09:56:39;;;;;;;4.88;2.95;;;;;;;24.14;44.31;101174.41;5072413;28;20126;-66
2023/09/23 09:59:04;;;;;;;3.80;2.75;;;;;;;24.12;44.30;101179.09;5086723;28;20039;-65
2023/09/23 10:01:30;;;;;;;3.30;2.65;;;;;;;24.15;44.26;101173.38;5071586;28;20036;-66
2023/09/23 10:03:56;;;;;;;2.63;2.33;;;;;;;24.13;44.37;101175.44;5076410;28;20489;-66
2023/09/23 10:06:22;;;;;;;3.78;2.83;;;;;;;24.08;44.39;101180.53;5073412;28;20059;-65
2023/09/23 10:08:49;;;;;;;2.25;1.95;;;;;;;24.17;44.29;101187.31;5075593;28;20161;-66
2023/09/23 10:11:15;;;;;;;5.55;2.53;;;;;;;24.14;44.41;101190.38;5071840;28;20040;-67
2023/09/23 10:13:42;;;;;;;4.20;2.30;;;;;;;24.16;44.36;101195.50;5075788;28;20017;-66
2023/09/23 10:16:19;;;;;;;4.20;2.40;;;;;;;24.15;44.26;101202.66;5075314;28;20036;-67
2023/09/23 10:18:54;;;;;;;4.20;2.50;;;;;;;24.15;44.27;101200.00;5076867;28;20042;-66
2023/09/23 10:21:24;;;;;;;4.53;2.85;;;;;;;24.14;44.19;101197.53;5077112;28;20081;-66
2023/09/23 10:23:51;;;;;;;4.53;2.67;;;;;;;24.16;44.25;101211.44;5073960;28;20036;-66
2023/09/23 10:26:19;;;;;;;2.83;2.50;;;;;;;24.16;44.49;101214.94;5075593;28;20052;-66
2023/09/23 10:29:03;;;;;;;3.50;2.63;;;;;;;24.18;44.12;101217.41;5074272;28;20035;-66
2023/09/23 10:31:33;;;;;;;3.90;2.28;;;;;;;24.16;44.21;101219.44;5070289;28;20043;-66
2023/09/23 10:34:10;;;;;;;4.28;2.47;;;;;;;24.19;44.11;101219.03;5075904;28;20501;-67
2023/09/23 10:36:36;;;;;;;3.45;2.28;;;;;;;24.21;44.11;101219.66;5079313;28;20086;-68
2023/09/23 10:39:15;;;;;;;3.55;2.22;;;;;;;24.22;44.26;101218.63;5088554;28;20082;-68
2023/09/23 10:41:41;;;;;;;3.00;2.45;;;;;;;24.17;44.28;101227.22;5077087;28;20028;-68
2023/09/23 10:44:07;;;;;;;2.95;2.55;;;;;;;24.22;44.08;101237.25;5088317;28;20052;-68
2023/09/23 10:46:33;;;;;;;2.67;2.40;;;;;;;24.18;44.28;101241.34;5074016;28;20044;-68
2023/09/23 10:49:00;;;;;;;3.60;2.20;;;;;;;24.17;44.20;101248.50;5070225;28;20048;-68
2023/09/23 10:51:27;;;;;;;2.65;2.35;;;;;;;24.16;44.28;101251.38;5072972;28;20050;-67
2023/09/23 10:53:52;;;;;;;4.57;2.20;;;;;;;24.18;44.11;101262.63;5072506;28;20044;-67
2023/09/23 10:56:22;;;;;;;2.80;2.47;;;;;;;24.19;44.24;101258.94;5078917;28;20085;-67
2023/09/23 10:58:51;;;;;;;4.55;2.72;;;;;;;24.18;44.24;101265.28;5074716;28;20391;-67
2023/09/23 11:01:23;;;;;;;2.33;2.13;;;;;;;24.18;44.32;101265.28;5066627;28;20425;-67
2023/09/23 11:03:48;;;;;;;2.63;2.30;;;;;;;24.18;44.29;101268.78;5065765;28;20123;-67
2023/09/23 11:06:16;;;;;;;4.00;2.40;;;;;;;24.21;44.33;101273.69;5067545;28;20050;-67
2023/09/23 11:08:42;;;;;;;4.85;2.30;;;;;;;24.22;44.09;101275.34;5067404;28;20054;-67
2023/09/23 11:11:09;;;;;;;4.32;2.50;;;;;;;24.23;44.18;101270.84;5058052;28;20044;-67
2023/09/23 11:13:35;;;;;;;3.78;2.47;;;;;;;24.10;44.40;101269.78;5069513;28;20066;-67
2023/09/23 11:16:08;;;;;;;2.25;2.05;;;;;;;24.18;44.42;101283.91;5071278;28;20049;-67
2023/09/23 11:18:36;;;;;;;3.58;2.35;;;;;;;24.24;44.21;101294.59;5070222;28;20813;-67
2023/09/23 11:21:02;;;;;;;3.97;2.38;;;;;;;24.19;44.35;101275.72;5072348;28;20390;-67
2023/09/23 11:23:29;;;;;;;2.97;2.25;;;;;;;24.21;44.39;101292.31;5065165;28;20953;-66